createdAt,value
2019-04-04T00:00:58.744Z,30.23
2019-04-04T00:03:04.378Z,29.35
2019-04-04T00:05:10.109Z,28.80
2019-04-04T00:07:15.656Z,30.27
2019-04-04T00:09:21.197Z,31.10
2019-04-04T00:11:26.752Z,35.33
2019-04-04T00:13:32.320Z,28.75
2019-04-04T00:15:38.225Z,32.88
2019-04-04T00:17:43.837Z,29.92
2019-04-04T00:19:49.398Z,37.28
2019-04-04T00:21:54.920Z,29.52
2019-04-04T00:24:00.737Z,29.52
2019-04-04T00:26:06.371Z,31.33
2019-04-04T00:28:15.020Z,30.77
2019-04-04T00:30:20.289Z,35.30
2019-04-04T00:32:25.926Z,34.18
2019-04-04T00:34:31.535Z,32.38
2019-04-04T00:36:37.204Z,33.90
2019-04-04T00:38:43.692Z,33.78
2019-04-04T00:40:49.385Z,32.88
2019-04-04T00:42:54.978Z,31.90
2019-04-04T00:45:00.520Z,27.98
2019-04-04T00:47:06.048Z,33.73
2019-04-04T00:49:11.581Z,33.65
2019-04-04T00:51:17.127Z,31.68
2019-04-04T00:53:22.668Z,33.15
2019-04-04T00:55:28.202Z,22.93
2019-04-04T00:57:33.804Z,24.32
2019-04-04T00:59:39.325Z,20.77
2019-04-04T01:01:44.867Z,32.65
2019-04-04T01:03:50.418Z,22.35
2019-04-04T01:05:56.025Z,19.92
2019-04-04T01:08:01.622Z,26.20
2019-04-04T01:10:08.307Z,20.77
2019-04-04T01:12:13.965Z,24.80
2019-04-04T01:14:19.524Z,23.85
2019-04-04T01:16:25.045Z,24.85
2019-04-04T01:18:30.587Z,23.38
2019-04-04T01:20:36.197Z,22.13
2019-04-04T01:22:41.711Z,26.25
2019-04-04T01:24:47.252Z,22.85
2019-04-04T01:26:52.852Z,22.00
2019-04-04T01:28:58.388Z,31.93
2019-04-04T01:31:04.078Z,22.98
2019-04-04T01:33:09.614Z,25.50
2019-04-04T01:35:15.217Z,28.38
2019-04-04T01:37:20.805Z,27.67
2019-04-04T01:39:26.498Z,26.12
2019-04-04T01:41:32.049Z,29.55
2019-04-04T01:43:38.063Z,26.82
2019-04-04T01:45:45.053Z,26.93
2019-04-04T01:47:50.559Z,31.27
2019-04-04T01:53:15.363Z,25.27
2019-04-04T01:55:20.962Z,23.70
2019-04-04T01:57:26.500Z,23.05
2019-04-04T01:59:32.086Z,23.12
2019-04-04T02:01:37.616Z,30.32
2019-04-04T02:03:43.221Z,29.67
2019-04-04T02:05:48.764Z,19.77
2019-04-04T02:07:54.296Z,22.55
2019-04-04T02:09:59.832Z,23.75
2019-04-04T02:12:07.677Z,27.30
2019-04-04T02:14:12.621Z,25.43
2019-04-04T02:16:18.164Z,26.30
2019-04-04T02:18:24.013Z,23.98
2019-04-04T02:20:29.747Z,23.75
2019-04-04T02:22:35.281Z,22.62
2019-04-04T02:24:40.825Z,19.67
2019-04-04T02:26:47.329Z,20.75
2019-04-04T02:28:52.881Z,25.12
2019-04-04T02:30:58.487Z,31.23
2019-04-04T02:33:04.264Z,20.50
2019-04-04T02:35:11.551Z,26.87
2019-04-04T02:37:20.608Z,24.02
2019-04-04T02:39:24.522Z,27.82
2019-04-04T02:41:30.074Z,27.95
2019-04-04T02:43:35.599Z,24.23
2019-04-04T02:45:41.205Z,23.12
2019-04-04T02:47:50.293Z,22.40
2019-04-04T02:49:53.894Z,28.60
2019-04-04T02:51:59.533Z,22.85
2019-04-04T02:54:05.297Z,23.05
2019-04-04T02:56:10.818Z,25.17
2019-04-04T02:58:16.374Z,18.90
2019-04-04T03:00:26.395Z,23.00
2019-04-04T03:02:29.221Z,21.00
2019-04-04T03:04:34.836Z,22.60
2019-04-04T03:06:40.441Z,19.32
2019-04-04T03:08:47.002Z,18.87
2019-04-04T03:10:52.632Z,22.73
2019-04-04T03:12:59.379Z,20.23
2019-04-04T03:15:09.040Z,24.40
2019-04-04T03:17:15.168Z,19.87
2019-04-04T03:19:20.774Z,18.60
2019-04-04T03:21:26.323Z,17.27
2019-04-04T03:23:33.811Z,20.77
2019-04-04T03:25:39.012Z,23.18
2019-04-04T03:27:44.571Z,22.85
2019-04-04T03:30:14.871Z,20.62
2019-04-04T03:32:17.416Z,16.35
2019-04-04T03:34:23.203Z,19.23
2019-04-04T03:36:30.726Z,18.75
2019-04-04T03:38:35.890Z,18.35
2019-04-04T03:40:41.932Z,19.60
2019-04-04T03:42:47.676Z,18.95
2019-04-04T03:44:54.242Z,18.32
2019-04-04T03:47:00.136Z,22.32
2019-04-04T03:49:05.703Z,20.60
2019-04-04T03:51:11.257Z,18.67
2019-04-04T03:53:17.967Z,19.57
2019-04-04T03:55:27.425Z,19.90
2019-04-04T03:57:30.662Z,18.42
2019-04-04T03:59:36.152Z,19.55
2019-04-04T04:01:45.406Z,20.82
2019-04-04T04:03:48.971Z,20.95
2019-04-04T04:05:54.502Z,21.85
2019-04-04T04:08:00.051Z,18.45
2019-04-04T04:10:07.252Z,27.10
2019-04-04T04:12:24.994Z,20.85
2019-04-04T04:14:30.524Z,23.52
2019-04-04T04:16:37.140Z,20.25
2019-04-04T04:18:42.677Z,20.75
2019-04-04T04:20:48.240Z,23.65
2019-04-04T04:22:53.772Z,19.92
2019-04-04T04:25:02.030Z,23.47
2019-04-04T04:27:06.534Z,21.12
2019-04-04T04:29:12.053Z,21.07
2019-04-04T04:31:17.581Z,19.42
2019-04-04T04:33:23.189Z,21.35
2019-04-04T04:35:28.710Z,23.62
2019-04-04T04:37:34.251Z,24.55
2019-04-04T04:39:41.411Z,23.73
2019-04-04T04:41:47.137Z,20.25
2019-04-04T04:43:52.659Z,27.45
2019-04-04T04:45:58.188Z,25.90
2019-04-04T04:48:03.724Z,27.17
2019-04-04T04:50:10.086Z,26.45
2019-04-04T04:52:15.768Z,26.45
2019-04-04T04:54:22.880Z,25.05
2019-04-04T04:56:30.925Z,24.70
2019-04-04T04:58:35.644Z,22.45
2019-04-04T05:00:41.182Z,21.33
2019-04-04T05:02:46.721Z,23.47
2019-04-04T05:04:52.268Z,21.70
2019-04-04T05:06:57.810Z,22.67
2019-04-04T05:09:05.553Z,26.65
2019-04-04T05:11:11.093Z,30.55
2019-04-04T05:13:16.622Z,36.10
2019-04-04T05:15:22.190Z,35.80
2019-04-04T05:17:27.993Z,37.55
2019-04-04T05:19:33.533Z,37.05
2019-04-04T05:21:39.164Z,35.75
2019-04-04T05:23:44.954Z,35.13
2019-04-04T05:25:54.129Z,36.68
2019-04-04T05:27:59.006Z,28.00
2019-04-04T05:30:08.197Z,32.30
2019-04-04T05:32:12.523Z,32.15
2019-04-04T05:34:18.062Z,33.45
2019-04-04T05:36:23.659Z,29.82
2019-04-04T05:38:29.198Z,31.97
2019-04-04T05:40:34.998Z,36.23
2019-04-04T05:42:40.561Z,27.35
2019-04-04T05:44:46.085Z,26.70
2019-04-04T05:46:52.153Z,32.70
2019-04-04T05:49:00.896Z,28.30
2019-04-04T05:51:05.021Z,29.15
2019-04-04T05:53:10.539Z,27.25
2019-04-04T05:55:16.068Z,26.68
2019-04-04T05:57:21.609Z,25.12
2019-04-04T05:59:28.103Z,30.60
2019-04-04T06:01:35.291Z,26.07
2019-04-04T06:03:40.853Z,31.62
2019-04-04T06:05:46.420Z,29.85
2019-04-04T06:07:51.978Z,28.20
2019-04-04T06:09:57.496Z,26.35
2019-04-04T06:12:03.112Z,27.27
2019-04-04T06:14:08.664Z,25.37
2019-04-04T06:16:14.193Z,28.30
2019-04-04T06:18:19.742Z,30.75
2019-04-04T06:20:25.361Z,30.17
2019-04-04T06:22:30.888Z,26.73
2019-04-04T06:24:36.432Z,28.85
2019-04-04T06:26:42.051Z,27.85
2019-04-04T06:28:47.589Z,23.47
2019-04-04T06:30:54.266Z,27.80
2019-04-04T06:32:59.957Z,25.88
2019-04-04T06:35:05.948Z,26.52
2019-04-04T06:37:11.485Z,22.65
2019-04-04T06:39:17.131Z,33.35
2019-04-04T06:41:22.661Z,25.68
2019-04-04T06:43:28.185Z,26.00
2019-04-04T06:45:33.922Z,30.95
2019-04-04T06:47:39.465Z,30.52
2019-04-04T06:49:45.924Z,22.42
2019-04-04T06:51:51.574Z,23.02
2019-04-04T06:53:59.408Z,30.23
2019-04-04T06:56:04.408Z,24.32
2019-04-04T06:58:09.959Z,21.10
2019-04-04T07:00:16.615Z,28.15
2019-04-04T07:02:23.998Z,29.65
2019-04-04T07:04:31.883Z,31.93
2019-04-04T07:06:36.492Z,27.25
2019-04-04T07:08:42.092Z,32.80
2019-04-04T07:10:57.358Z,28.10
2019-04-04T07:13:06.248Z,32.63
2019-04-04T07:15:02.138Z,19.90
2019-04-04T07:17:08.824Z,22.45
2019-04-04T07:19:15.187Z,23.30
2019-04-04T07:21:20.784Z,20.37
2019-04-04T07:23:28.327Z,27.05
2019-04-04T07:25:35.820Z,24.63
2019-04-04T07:27:41.364Z,18.37
2019-04-04T07:29:46.893Z,26.77
2019-04-04T07:31:52.434Z,29.42
2019-04-04T07:33:57.989Z,20.30
2019-04-04T07:36:03.585Z,13.05
2019-04-04T07:38:09.186Z,31.73
2019-04-04T07:40:15.081Z,16.75
2019-04-04T07:42:20.679Z,23.27
2019-04-04T07:44:26.292Z,25.27
2019-04-04T07:46:31.829Z,21.45
2019-04-04T07:48:37.386Z,24.23
2019-04-04T07:50:58.199Z,26.07
2019-04-04T07:53:04.838Z,22.27
2019-04-04T07:55:10.916Z,25.80
2019-04-04T07:57:17.306Z,34.95
2019-04-04T07:59:23.810Z,34.43
2019-04-04T08:01:29.360Z,28.38
2019-04-04T08:03:34.904Z,21.52
2019-04-04T08:05:40.462Z,27.42
2019-04-04T08:07:47.242Z,21.57
2019-04-04T08:09:53.799Z,16.37
2019-04-04T08:11:59.441Z,8.35
2019-04-04T08:14:05.185Z,14.98
2019-04-04T08:16:11.761Z,24.20
2019-04-04T08:18:17.326Z,22.67
2019-04-04T08:20:22.911Z,34.70
2019-04-04T08:22:28.433Z,27.98
2019-04-04T08:24:33.978Z,15.58
2019-04-04T08:26:39.504Z,16.15
2019-04-04T08:28:45.036Z,17.35
2019-04-04T08:30:50.580Z,22.50
2019-04-04T08:32:56.124Z,33.08
2019-04-04T08:35:01.671Z,17.30
2019-04-04T08:37:07.280Z,36.10
2019-04-04T08:39:12.954Z,11.35
2019-04-04T08:41:18.546Z,22.60
2019-04-04T08:43:24.176Z,38.83
2019-04-04T08:45:29.803Z,19.90
2019-04-04T08:47:35.342Z,38.05
2019-04-04T08:49:40.973Z,25.17
2019-04-04T08:51:46.531Z,22.48
2019-04-04T08:53:52.147Z,24.57
2019-04-04T08:55:57.684Z,16.40
2019-04-04T08:58:03.313Z,17.67
2019-04-04T09:00:09.199Z,17.70
2019-04-04T09:02:14.780Z,18.45
2019-04-04T09:04:20.323Z,29.67
2019-04-04T09:06:25.879Z,11.30
2019-04-04T09:08:31.423Z,14.35
2019-04-04T09:10:36.951Z,12.70
2019-04-04T09:12:42.503Z,10.82
2019-04-04T09:14:48.040Z,18.05
2019-04-04T09:16:53.653Z,14.60
2019-04-04T09:18:59.188Z,28.55
2019-04-04T09:21:04.998Z,11.75
2019-04-04T09:23:10.540Z,24.98
2019-04-04T09:25:16.208Z,17.73
2019-04-04T09:27:21.749Z,18.37
2019-04-04T09:29:27.272Z,19.62
2019-04-04T09:31:32.800Z,21.73
2019-04-04T09:33:39.445Z,25.88
2019-04-04T09:35:44.972Z,28.25
2019-04-04T09:37:50.514Z,19.50
2019-04-04T09:39:56.070Z,19.82
2019-04-04T09:42:01.584Z,25.50
2019-04-04T09:44:07.110Z,18.65
2019-04-04T09:46:12.793Z,16.32
2019-04-04T09:48:18.341Z,19.32
2019-04-04T09:50:23.874Z,18.90
2019-04-04T09:52:29.424Z,22.00
2019-04-04T09:54:35.015Z,9.55
2019-04-04T09:56:40.533Z,11.78
2019-04-04T09:58:46.075Z,19.57
2019-04-04T10:00:51.610Z,17.80
2019-04-04T10:02:57.283Z,15.48
2019-04-04T10:05:05.782Z,19.17
2019-04-04T10:07:10.455Z,16.77
2019-04-04T10:09:17.038Z,8.63
2019-04-04T10:11:22.796Z,16.17
2019-04-04T10:13:28.335Z,13.65
2019-04-04T10:15:33.862Z,14.60
2019-04-04T10:17:39.462Z,11.95
2019-04-04T10:19:44.997Z,24.35
2019-04-04T10:21:50.542Z,13.58
2019-04-04T10:23:56.089Z,22.07
2019-04-04T10:26:01.618Z,25.43
2019-04-04T10:28:07.220Z,21.65
2019-04-04T10:30:13.297Z,13.45
2019-04-04T10:32:18.835Z,23.35
2019-04-04T10:34:24.440Z,19.20
2019-04-04T10:36:30.004Z,14.47
2019-04-04T10:38:35.545Z,11.60
2019-04-04T10:40:41.075Z,9.55
2019-04-04T10:42:46.621Z,21.73
2019-04-04T10:44:52.214Z,10.93
2019-04-04T10:46:57.752Z,8.70
2019-04-04T10:49:03.298Z,15.15
2019-04-04T10:51:08.903Z,15.35
2019-04-04T10:53:14.450Z,12.80
2019-04-04T10:55:20.134Z,11.55
2019-04-04T10:57:25.788Z,7.95
2019-04-04T10:59:31.303Z,13.93
2019-04-04T11:01:37.914Z,7.67
2019-04-04T11:03:43.448Z,14.43
2019-04-04T11:05:49.045Z,7.08
2019-04-04T11:07:56.756Z,23.83
2019-04-04T11:10:01.805Z,14.38
2019-04-04T11:12:07.596Z,9.70
2019-04-04T11:14:13.140Z,11.33
2019-04-04T11:16:29.547Z,23.07
2019-04-04T11:18:26.880Z,26.23
2019-04-04T11:20:32.435Z,15.58
2019-04-04T11:22:39.033Z,69.85
2019-04-04T11:24:44.573Z,167.60
2019-04-04T11:26:50.285Z,34.00
2019-04-04T11:28:55.788Z,19.12
2019-04-04T11:31:01.333Z,96.87
2019-04-04T11:33:06.957Z,49.53
2019-04-04T11:35:12.897Z,83.67
2019-04-04T11:37:18.428Z,49.42
2019-04-04T11:39:24.267Z,109.97
2019-04-04T11:41:29.874Z,33.75
2019-04-04T11:43:35.413Z,27.30
2019-04-04T11:45:40.968Z,19.80
2019-04-04T11:47:46.496Z,17.98
2019-04-04T11:49:52.087Z,29.87
2019-04-04T11:51:57.684Z,17.85
2019-04-04T11:54:03.268Z,21.82
2019-04-04T11:56:08.812Z,16.80
2019-04-04T11:58:14.341Z,16.07
2019-04-04T12:00:27.711Z,20.45
2019-04-04T12:02:33.235Z,6.93
2019-04-04T12:04:38.754Z,11.43
2019-04-04T12:06:44.281Z,15.38
2019-04-04T12:08:49.827Z,17.17
2019-04-04T12:10:55.444Z,11.93
2019-04-04T12:13:01.024Z,18.15
2019-04-04T12:15:08.163Z,13.95
2019-04-04T12:17:13.708Z,11.20
2019-04-04T12:19:19.245Z,12.55
2019-04-04T12:21:24.789Z,16.50
2019-04-04T12:23:31.399Z,13.40
2019-04-04T12:25:37.014Z,20.23
2019-04-04T12:27:42.528Z,10.98
2019-04-04T12:29:48.112Z,11.68
2019-04-04T12:31:53.645Z,8.58
2019-04-04T12:34:01.944Z,13.90
2019-04-04T12:36:06.732Z,11.12
2019-04-04T12:38:12.265Z,12.63
2019-04-04T12:40:20.931Z,8.58
2019-04-04T12:42:25.400Z,11.93
2019-04-04T12:44:30.973Z,6.75
2019-04-04T12:46:36.484Z,13.22
2019-04-04T12:48:42.040Z,15.35
2019-04-04T12:50:48.597Z,12.43
2019-04-04T12:52:54.256Z,11.35
2019-04-04T12:54:59.824Z,13.45
2019-04-04T12:57:05.345Z,10.80
2019-04-04T12:59:10.977Z,16.12
2019-04-04T13:01:16.533Z,7.22
2019-04-04T13:03:22.510Z,14.15
2019-04-04T13:05:28.397Z,11.28
2019-04-04T13:07:34.033Z,14.73
2019-04-04T13:09:39.556Z,11.55
2019-04-04T13:11:45.089Z,11.90
2019-04-04T13:13:50.643Z,14.03
2019-04-04T13:15:56.176Z,14.25
2019-04-04T13:18:01.708Z,9.13
2019-04-04T13:20:07.790Z,10.35
2019-04-04T13:22:13.313Z,11.10
2019-04-04T13:24:18.860Z,12.07
2019-04-04T13:26:24.489Z,21.23
2019-04-04T13:28:30.081Z,12.18
2019-04-04T13:30:35.536Z,11.73
2019-04-04T13:32:41.072Z,9.50
2019-04-04T13:34:58.399Z,7.05
2019-04-04T13:36:53.757Z,11.57
2019-04-04T13:38:59.385Z,8.95
2019-04-04T13:41:05.029Z,10.03
2019-04-04T13:43:10.558Z,16.73
2019-04-04T13:45:16.229Z,12.30
2019-04-04T13:47:21.745Z,14.07
2019-04-04T13:49:27.299Z,8.93
2019-04-04T13:51:32.817Z,10.85
2019-04-04T13:53:41.193Z,11.03
2019-04-04T13:55:45.505Z,6.05
2019-04-04T13:57:52.099Z,17.57
2019-04-04T13:59:57.617Z,12.95
2019-04-04T14:02:03.276Z,13.10
2019-04-04T14:04:08.806Z,10.30
2019-04-04T14:06:14.361Z,12.18
2019-04-04T14:08:19.926Z,17.02
2019-04-04T14:10:25.464Z,15.03
2019-04-04T14:12:31.015Z,13.98
2019-04-04T14:14:36.528Z,8.95
2019-04-04T14:16:42.037Z,12.13
2019-04-04T14:18:47.562Z,11.12
2019-04-04T14:21:03.295Z,13.62
2019-04-04T14:23:01.804Z,11.70
2019-04-04T14:25:07.766Z,11.95
2019-04-04T14:27:13.392Z,7.08
2019-04-04T14:29:27.321Z,15.45
2019-04-04T14:31:26.065Z,6.10
2019-04-04T14:33:31.648Z,10.70
2019-04-04T14:35:37.184Z,16.77
2019-04-04T14:37:42.734Z,9.70
2019-04-04T14:39:48.282Z,6.85
2019-04-04T14:41:53.809Z,8.43
2019-04-04T14:44:00.674Z,11.38
2019-04-04T14:46:06.575Z,9.18
2019-04-04T14:48:12.193Z,12.78
2019-04-04T14:50:17.844Z,12.90
2019-04-04T14:52:24.551Z,12.35
2019-04-04T14:54:30.086Z,13.93
2019-04-04T14:56:35.617Z,20.37
2019-04-04T14:58:41.194Z,13.68
2019-04-04T15:00:46.813Z,8.88
2019-04-04T15:02:52.388Z,10.23
2019-04-04T15:04:57.989Z,16.75
2019-04-04T15:07:03.657Z,9.90
2019-04-04T15:09:10.896Z,15.35
2019-04-04T15:11:24.074Z,13.60
2019-04-04T15:13:23.688Z,13.98
2019-04-04T15:15:29.237Z,13.28
2019-04-04T15:17:34.781Z,15.30
2019-04-04T15:19:40.353Z,12.98
2019-04-04T15:21:45.957Z,14.63
2019-04-04T15:23:52.499Z,10.25
2019-04-04T15:25:58.038Z,19.40
2019-04-04T15:28:03.664Z,11.93
2019-04-04T15:30:10.156Z,14.55
2019-04-04T15:32:15.672Z,14.85
2019-04-04T15:34:21.233Z,10.90
2019-04-04T15:36:26.773Z,9.10
2019-04-04T15:38:32.393Z,10.70
2019-04-04T15:40:37.933Z,11.68
2019-04-04T15:42:43.552Z,11.05
2019-04-04T15:44:49.074Z,13.32
2019-04-04T15:46:54.688Z,15.13
2019-04-04T15:49:00.255Z,12.43
2019-04-04T15:51:05.849Z,6.22
2019-04-04T15:53:11.435Z,16.65
2019-04-04T15:55:16.975Z,13.93
2019-04-04T15:57:22.580Z,12.45
2019-04-04T15:59:28.113Z,15.38
2019-04-04T16:01:33.722Z,12.82
2019-04-04T16:03:39.401Z,12.68
2019-04-04T16:05:44.925Z,16.17
2019-04-04T16:07:50.460Z,22.35
2019-04-04T16:09:56.076Z,20.50
2019-04-04T16:12:01.619Z,20.55
2019-04-04T16:14:07.140Z,25.55
2019-04-04T16:16:12.752Z,19.23
2019-04-04T16:18:18.294Z,18.95
2019-04-04T16:20:23.819Z,16.07
2019-04-04T16:22:29.405Z,14.40
2019-04-04T16:24:34.927Z,16.23
2019-04-04T16:26:40.505Z,13.93
2019-04-04T16:28:46.016Z,18.82
2019-04-04T16:30:51.568Z,13.55
2019-04-04T16:32:57.152Z,9.08
2019-04-04T16:35:02.754Z,15.55
2019-04-04T16:37:08.405Z,14.43
2019-04-04T16:39:13.865Z,13.15
2019-04-04T16:41:19.383Z,18.07
2019-04-04T16:43:25.005Z,18.05
2019-04-04T16:45:30.533Z,17.23
2019-04-04T16:47:36.123Z,18.02
2019-04-04T16:49:42.743Z,21.05
2019-04-04T16:51:48.270Z,24.67
2019-04-04T16:53:53.789Z,23.87
2019-04-04T16:55:59.330Z,25.17
2019-04-04T16:58:04.938Z,22.73
2019-04-04T17:00:12.669Z,25.45
2019-04-04T17:02:18.223Z,26.17
2019-04-04T17:04:23.749Z,24.70
2019-04-04T17:06:30.954Z,32.50
2019-04-04T17:08:36.516Z,37.42
2019-04-04T17:10:42.385Z,36.28
2019-04-04T17:12:47.953Z,31.33
2019-04-04T17:14:53.485Z,27.73
2019-04-04T17:16:58.996Z,36.80
2019-04-04T17:19:04.674Z,37.70
2019-04-04T17:21:10.270Z,33.88
2019-04-04T17:23:28.205Z,32.00
2019-04-04T17:25:33.836Z,31.37
2019-04-04T17:27:39.450Z,32.73
2019-04-04T17:29:45.275Z,33.45
2019-04-04T17:31:50.891Z,32.63
2019-04-04T17:33:56.458Z,30.52
2019-04-04T17:36:02.565Z,42.25
2019-04-04T17:38:08.253Z,39.83
2019-04-04T17:40:17.134Z,37.93
2019-04-04T17:42:30.400Z,44.40
2019-04-04T17:44:29.908Z,37.70
2019-04-04T17:46:35.525Z,42.98
2019-04-04T17:48:41.254Z,37.75
2019-04-04T17:50:47.142Z,39.08
2019-04-04T17:52:52.892Z,47.10
2019-04-04T17:54:58.463Z,40.33
2019-04-04T17:57:04.216Z,42.95
2019-04-04T17:59:09.687Z,45.00
2019-04-04T18:01:16.186Z,41.30
2019-04-04T18:03:21.840Z,36.75
2019-04-04T18:05:27.436Z,40.78
2019-04-04T18:07:32.980Z,44.20
2019-04-04T18:09:38.555Z,52.67
2019-04-04T18:11:44.160Z,49.13
2019-04-04T18:13:49.700Z,52.13
2019-04-04T18:15:55.264Z,45.92
2019-04-04T18:18:00.877Z,41.25
2019-04-04T18:20:10.302Z,39.60
2019-04-04T18:22:16.013Z,34.78
2019-04-04T18:24:21.545Z,35.88
2019-04-04T18:26:27.086Z,36.53
2019-04-04T18:28:32.630Z,39.50
2019-04-04T18:30:38.335Z,44.67
2019-04-04T18:32:43.970Z,41.90
2019-04-04T18:34:49.622Z,39.08
2019-04-04T18:36:55.376Z,45.45
2019-04-04T18:39:00.915Z,34.80
2019-04-04T18:41:08.125Z,32.03
2019-04-04T18:43:14.039Z,29.25
2019-04-04T18:45:19.606Z,32.25
2019-04-04T18:47:25.219Z,28.25
2019-04-04T18:49:30.839Z,30.90
2019-04-04T18:51:37.685Z,29.90
2019-04-04T18:53:43.431Z,27.48
2019-04-04T18:55:48.972Z,29.00
2019-04-04T18:57:54.615Z,27.75
2019-04-04T19:00:00.142Z,31.00
2019-04-04T19:02:06.017Z,29.77
2019-04-04T19:04:11.655Z,28.55
2019-04-04T19:06:17.200Z,31.02
2019-04-04T19:08:22.806Z,37.48
2019-04-04T19:10:28.641Z,44.75
2019-04-04T19:12:34.315Z,46.55
2019-04-04T19:14:40.017Z,50.98
2019-04-04T19:16:45.562Z,55.60
2019-04-04T19:18:51.111Z,60.25
2019-04-04T19:20:56.781Z,63.65
2019-04-04T19:23:02.441Z,60.48
2019-04-04T19:25:08.622Z,67.35
2019-04-04T19:27:14.404Z,59.15
2019-04-04T19:29:20.020Z,56.73
2019-04-04T19:31:25.668Z,57.98
2019-04-04T19:33:31.273Z,55.67
2019-04-04T19:35:36.909Z,68.85
2019-04-04T19:37:42.524Z,64.70
2019-04-04T19:40:00.345Z,64.85
2019-04-04T19:42:06.011Z,67.60
2019-04-04T19:44:11.602Z,69.67
2019-04-04T19:46:17.381Z,67.92
2019-04-04T19:48:23.141Z,65.90
2019-04-04T19:50:28.915Z,66.15
2019-04-04T19:52:34.458Z,61.02
2019-04-04T19:54:43.531Z,65.45
2019-04-04T19:56:49.044Z,68.07
2019-04-04T19:58:54.608Z,62.50
2019-04-04T20:01:00.375Z,54.15
2019-04-04T20:03:06.079Z,55.23
2019-04-04T20:05:11.910Z,58.78
2019-04-04T20:07:17.457Z,64.00
2019-04-04T20:09:23.105Z,65.20
2019-04-04T20:11:28.650Z,62.43
2019-04-04T20:13:34.331Z,61.20
2019-04-04T20:15:39.977Z,55.40
2019-04-04T20:17:47.069Z,54.60
2019-04-04T20:19:52.745Z,56.83
2019-04-04T20:21:58.514Z,56.08
2019-04-04T20:24:04.112Z,60.38
2019-04-04T20:26:09.730Z,61.68
2019-04-04T20:28:15.336Z,62.15
2019-04-04T20:30:36.040Z,63.02
2019-04-04T20:32:41.570Z,65.37
2019-04-04T20:34:47.122Z,63.48
2019-04-04T20:36:52.670Z,66.50
2019-04-04T20:38:58.217Z,62.00
2019-04-04T20:41:04.015Z,65.12
2019-04-04T20:43:09.550Z,60.92
2019-04-04T20:45:16.293Z,58.73
2019-04-04T20:47:21.830Z,57.05
2019-04-04T20:49:46.689Z,61.73
2019-04-04T20:51:52.216Z,53.15
2019-04-04T20:53:57.765Z,52.93
2019-04-04T20:56:03.423Z,51.63
2019-04-04T20:58:08.966Z,60.05
2019-04-04T21:00:14.665Z,56.37
2019-04-04T21:02:20.441Z,53.65
2019-04-04T21:04:26.036Z,54.05
2019-04-04T21:06:31.625Z,57.03
2019-04-04T21:08:37.140Z,59.67
2019-04-04T21:10:42.773Z,53.78
2019-04-04T21:12:48.312Z,58.58
2019-04-04T21:14:53.941Z,59.85
2019-04-04T21:16:59.490Z,52.40
2019-04-04T21:19:05.097Z,59.80
2019-04-04T21:21:10.729Z,59.25
2019-04-04T21:23:16.261Z,58.10
2019-04-04T21:25:21.790Z,62.95
2019-04-04T21:27:27.417Z,62.40
2019-04-04T21:29:32.952Z,59.48
2019-04-04T21:31:39.445Z,63.92
2019-04-04T21:33:45.010Z,53.58
2019-04-04T21:35:50.540Z,56.92
2019-04-04T21:37:56.089Z,50.85
2019-04-04T21:40:01.642Z,58.15
2019-04-04T21:42:08.258Z,54.15
2019-04-04T21:44:13.793Z,54.42
2019-04-04T21:46:19.352Z,54.05
2019-04-04T21:48:24.881Z,53.98
2019-04-04T21:50:30.500Z,55.08
2019-04-04T21:52:36.897Z,54.60
2019-04-04T21:54:42.424Z,58.00
2019-04-04T21:56:47.972Z,53.83
2019-04-04T21:58:53.521Z,52.70
2019-04-04T22:00:59.269Z,48.48
2019-04-04T22:03:06.478Z,51.05
2019-04-04T22:05:12.274Z,52.25
2019-04-04T22:07:17.945Z,48.90
2019-04-04T22:09:23.479Z,48.05
2019-04-04T22:11:29.181Z,44.80
2019-04-04T22:13:34.802Z,52.15
2019-04-04T22:15:40.384Z,51.42
2019-04-04T22:17:45.908Z,52.25
2019-04-04T22:19:51.439Z,52.53
2019-04-04T22:21:57.013Z,54.63
2019-04-04T22:24:02.565Z,56.37
2019-04-04T22:26:08.100Z,57.58
2019-04-04T22:28:13.624Z,54.50
2019-04-04T22:30:19.304Z,56.90
2019-04-04T22:32:24.913Z,50.83
2019-04-04T22:34:30.448Z,46.53
2019-04-04T22:36:36.002Z,58.13
2019-04-04T22:38:41.539Z,57.53
2019-04-04T22:40:47.157Z,47.95
2019-04-04T22:42:52.693Z,53.68
2019-04-04T22:44:58.234Z,57.00
2019-04-04T22:47:03.850Z,53.92
2019-04-04T22:49:09.432Z,57.33
2019-04-04T22:51:14.998Z,58.25
2019-04-04T22:53:20.504Z,55.28
2019-04-04T22:55:26.666Z,57.95
2019-04-04T22:57:32.390Z,54.53
2019-04-04T22:59:37.916Z,58.95
2019-04-04T23:01:43.522Z,52.43
2019-04-04T23:03:48.988Z,46.65
2019-04-04T23:05:54.520Z,47.23
2019-04-04T23:08:00.073Z,45.60
2019-04-04T23:10:07.541Z,44.40
2019-04-04T23:12:13.075Z,46.95
2019-04-04T23:14:18.612Z,48.38
2019-04-04T23:16:24.152Z,47.93
2019-04-04T23:18:29.685Z,44.77
2019-04-04T23:20:35.240Z,44.05
2019-04-04T23:22:52.107Z,44.88
2019-04-04T23:24:47.933Z,45.63
2019-04-04T23:26:53.471Z,41.68
2019-04-04T23:28:59.003Z,40.80
2019-04-04T23:31:04.528Z,38.35
2019-04-04T23:33:10.075Z,39.95
2019-04-04T23:35:16.727Z,39.98
2019-04-04T23:37:22.512Z,43.83
2019-04-04T23:39:28.044Z,37.17
2019-04-04T23:41:33.581Z,39.33
2019-04-04T23:43:39.117Z,37.42
2019-04-04T23:45:44.649Z,39.83
2019-04-04T23:47:50.190Z,38.02
2019-04-04T23:49:55.732Z,39.13
2019-04-04T23:52:01.293Z,36.53
2019-04-04T23:54:06.828Z,38.85
2019-04-04T23:56:12.357Z,39.35
2019-04-04T23:58:18.008Z,35.13
